createdAt,value
2017-11-27T00:00:02.639Z,1015.22
2017-11-27T00:01:02.647Z,1015.17
2017-11-27T00:02:02.647Z,1015.12
2017-11-27T00:03:02.654Z,1015.12
2017-11-27T00:04:02.670Z,1015.09
2017-11-27T00:05:02.660Z,1015.09
2017-11-27T00:06:02.721Z,1015.08
2017-11-27T00:07:02.676Z,1015.02
2017-11-27T00:08:02.735Z,1014.98
2017-11-27T00:09:02.675Z,1014.99
2017-11-27T00:10:02.689Z,1015.02
2017-11-27T00:11:02.689Z,1014.99
2017-11-27T00:12:02.711Z,1014.96
2017-11-27T00:13:02.702Z,1015.06
2017-11-27T00:14:02.719Z,1015.00
2017-11-27T00:15:02.729Z,1014.93
2017-11-27T00:16:02.720Z,1014.90
2017-11-27T00:17:02.726Z,1014.90
2017-11-27T00:18:02.722Z,1014.93
2017-11-27T00:19:02.762Z,1014.92
2017-11-27T00:20:02.736Z,1014.94
2017-11-27T00:21:02.740Z,1014.90
2017-11-27T00:22:02.743Z,1014.89
2017-11-27T00:23:02.750Z,1014.89
2017-11-27T00:24:02.757Z,1014.97
2017-11-27T00:25:02.760Z,1015.01
2017-11-27T00:26:02.853Z,1015.01
2017-11-27T00:27:02.775Z,1015.02
2017-11-27T00:28:02.773Z,1015.00
2017-11-27T00:29:02.776Z,1014.97
2017-11-27T00:30:02.779Z,1015.01
2017-11-27T00:31:02.785Z,1015.05
2017-11-27T00:32:02.793Z,1015.08
2017-11-27T00:33:02.795Z,1015.08
2017-11-27T00:34:02.804Z,1015.07
2017-11-27T00:35:02.806Z,1015.13
2017-11-27T00:36:02.811Z,1015.08
2017-11-27T00:37:02.817Z,1015.04
2017-11-27T00:38:02.818Z,1015.04
2017-11-27T00:39:02.830Z,1015.04
2017-11-27T00:40:02.835Z,1015.02
2017-11-27T00:41:02.831Z,1015.00
2017-11-27T00:42:02.836Z,1014.95
2017-11-27T00:43:02.842Z,1014.92
2017-11-27T00:44:02.849Z,1014.96
2017-11-27T00:45:02.859Z,1014.93
2017-11-27T00:46:02.993Z,1014.96
2017-11-27T00:47:02.869Z,1014.92
2017-11-27T00:48:03.929Z,1014.86
2017-11-27T00:49:02.872Z,1014.86
2017-11-27T00:50:02.875Z,1014.79
2017-11-27T00:51:02.881Z,1014.84
2017-11-27T00:52:02.884Z,1014.83
2017-11-27T00:53:02.915Z,1014.77
2017-11-27T00:54:02.894Z,1014.83
2017-11-27T00:55:02.898Z,1014.81
2017-11-27T00:56:02.902Z,1014.83
2017-11-27T00:57:02.909Z,1014.76
2017-11-27T00:58:02.918Z,1014.75
2017-11-27T00:59:02.917Z,1014.78
2017-11-27T01:00:02.925Z,1014.79
2017-11-27T01:01:02.976Z,1014.71
2017-11-27T01:02:02.936Z,1014.72
2017-11-27T01:03:04.011Z,1014.71
2017-11-27T01:04:02.944Z,1014.74
2017-11-27T01:05:04.024Z,1014.71
2017-11-27T01:06:02.951Z,1014.74
2017-11-27T01:07:03.107Z,1014.76
2017-11-27T01:08:02.961Z,1014.75
2017-11-27T01:09:03.028Z,1014.81
2017-11-27T01:10:02.969Z,1014.79
2017-11-27T01:11:04.064Z,1014.76
2017-11-27T01:12:02.986Z,1014.74
2017-11-27T01:13:03.051Z,1014.78
2017-11-27T01:14:02.990Z,1014.77
2017-11-27T01:15:03.065Z,1014.79
2017-11-27T01:16:03.002Z,1014.77
2017-11-27T01:17:03.076Z,1014.74
2017-11-27T01:18:03.009Z,1014.79
2017-11-27T01:19:03.086Z,1014.77
2017-11-27T01:20:03.021Z,1014.80
2017-11-27T01:21:07.919Z,1014.73
2017-11-27T01:22:03.018Z,1014.79
2017-11-27T01:23:05.065Z,1014.74
2017-11-27T01:24:03.035Z,1014.73
2017-11-27T01:25:04.149Z,1014.77
2017-11-27T01:26:03.057Z,1014.75
2017-11-27T01:27:09.895Z,1014.77
2017-11-27T01:28:03.051Z,1014.75
2017-11-27T01:29:03.160Z,1014.76
2017-11-27T01:30:03.062Z,1014.79
2017-11-27T01:31:03.268Z,1014.77
2017-11-27T01:32:03.073Z,1014.72
2017-11-27T01:33:03.175Z,1014.78
2017-11-27T01:34:03.080Z,1014.76
2017-11-27T01:35:03.192Z,1014.75
2017-11-27T01:36:03.093Z,1014.67
2017-11-27T01:37:03.201Z,1014.72
2017-11-27T01:38:03.098Z,1014.77
2017-11-27T01:39:03.214Z,1014.77
2017-11-27T01:40:03.113Z,1014.79
2017-11-27T01:41:04.153Z,1014.77
2017-11-27T01:42:03.130Z,1014.83
2017-11-27T01:43:03.243Z,1014.79
2017-11-27T01:44:03.139Z,1014.84
2017-11-27T01:45:03.262Z,1014.84
2017-11-27T01:46:03.136Z,1014.87
2017-11-27T01:47:04.186Z,1014.84
2017-11-27T01:48:05.824Z,1014.92
2017-11-27T01:49:03.153Z,1014.82
2017-11-27T01:50:27.860Z,1014.78
2017-11-27T01:51:03.160Z,1014.73
2017-11-27T01:52:05.249Z,1014.80
2017-11-27T01:53:03.168Z,1014.81
2017-11-27T01:54:09.872Z,1014.73
2017-11-27T01:55:03.181Z,1014.77
2017-11-27T01:56:03.228Z,1014.73
2017-11-27T01:57:03.191Z,1014.74
2017-11-27T01:58:13.896Z,1014.69
2017-11-27T01:59:03.199Z,1014.73
2017-11-27T02:00:03.254Z,1014.69
2017-11-27T02:01:03.206Z,1014.74
2017-11-27T02:02:03.271Z,1014.74
2017-11-27T02:03:03.218Z,1014.68
2017-11-27T02:04:03.288Z,1014.71
2017-11-27T02:05:03.228Z,1014.71
2017-11-27T02:06:03.295Z,1014.73
2017-11-27T02:07:03.235Z,1014.70
2017-11-27T02:08:03.313Z,1014.75
2017-11-27T02:09:03.244Z,1014.70
2017-11-27T02:10:04.346Z,1014.68
2017-11-27T02:11:03.267Z,1014.69
2017-11-27T02:12:03.338Z,1014.61
2017-11-27T02:13:03.261Z,1014.68
2017-11-27T02:14:03.350Z,1014.62
2017-11-27T02:15:03.273Z,1014.63
2017-11-27T02:16:05.406Z,1014.60
2017-11-27T02:17:03.277Z,1014.56
2017-11-27T02:18:05.433Z,1014.57
2017-11-27T02:19:03.289Z,1014.55
2017-11-27T02:20:03.395Z,1014.50
2017-11-27T02:21:03.290Z,1014.51
2017-11-27T02:22:05.353Z,1014.49
2017-11-27T02:23:03.314Z,1014.49
2017-11-27T02:24:04.448Z,1014.54
2017-11-27T02:25:03.327Z,1014.52
2017-11-27T02:26:03.431Z,1014.53
2017-11-27T02:27:03.328Z,1014.48
2017-11-27T02:28:03.445Z,1014.46
2017-11-27T02:29:03.341Z,1014.47
2017-11-27T02:30:03.474Z,1014.44
2017-11-27T02:31:03.363Z,1014.38
2017-11-27T02:32:04.397Z,1014.42
2017-11-27T02:33:03.359Z,1014.41
2017-11-27T02:34:04.411Z,1014.37
2017-11-27T02:35:03.363Z,1014.36
2017-11-27T02:36:04.324Z,1014.37
2017-11-27T02:37:03.375Z,1014.39
2017-11-27T02:38:08.426Z,1014.40
2017-11-27T02:39:03.385Z,1014.39
2017-11-27T02:40:04.449Z,1014.42
2017-11-27T02:41:03.385Z,1014.37
2017-11-27T02:42:03.544Z,1014.38
2017-11-27T02:43:03.403Z,1014.31
2017-11-27T02:44:04.524Z,1014.31
2017-11-27T02:45:03.410Z,1014.29
2017-11-27T02:46:03.513Z,1014.31
2017-11-27T02:47:03.420Z,1014.28
2017-11-27T02:48:03.539Z,1014.25
2017-11-27T02:49:03.428Z,1014.29
2017-11-27T02:50:03.498Z,1014.36
2017-11-27T02:51:03.440Z,1014.27
2017-11-27T02:52:05.555Z,1014.25
2017-11-27T02:53:03.446Z,1014.24
2017-11-27T02:54:03.518Z,1014.26
2017-11-27T02:55:03.460Z,1014.21
2017-11-27T02:56:04.558Z,1014.25
2017-11-27T02:57:03.468Z,1014.21
2017-11-27T02:58:05.329Z,1014.22
2017-11-27T02:59:03.473Z,1014.19
2017-11-27T03:00:03.482Z,1014.19
2017-11-27T03:01:03.482Z,1014.16
2017-11-27T03:02:04.591Z,1014.06
2017-11-27T03:03:03.493Z,1014.07
2017-11-27T03:04:03.550Z,1014.03
2017-11-27T03:05:03.504Z,1014.07
2017-11-27T03:06:03.568Z,1013.97
2017-11-27T03:07:03.509Z,1013.99
2017-11-27T03:08:04.600Z,1013.96
2017-11-27T03:09:03.584Z,1013.98
2017-11-27T03:10:03.556Z,1014.02
2017-11-27T03:11:03.630Z,1013.98
2017-11-27T03:12:03.534Z,1013.98
2017-11-27T03:13:04.668Z,1013.98
2017-11-27T03:14:03.544Z,1013.97
2017-11-27T03:15:03.656Z,1013.91
2017-11-27T03:16:03.550Z,1013.91
2017-11-27T03:17:03.757Z,1013.90
2017-11-27T03:18:03.557Z,1013.88
2017-11-27T03:19:03.744Z,1013.82
2017-11-27T03:20:03.568Z,1013.85
2017-11-27T03:21:03.758Z,1013.84
2017-11-27T03:22:03.584Z,1013.83
2017-11-27T03:23:03.771Z,1013.81
2017-11-27T03:24:03.605Z,1013.81
2017-11-27T03:25:03.787Z,1013.78
2017-11-27T03:26:03.603Z,1013.81
2017-11-27T03:27:03.800Z,1013.81
2017-11-27T03:28:03.603Z,1013.81
2017-11-27T03:29:03.810Z,1013.78
2017-11-27T03:30:03.617Z,1013.76
2017-11-27T03:31:03.722Z,1013.76
2017-11-27T03:32:03.626Z,1013.76
2017-11-27T03:33:03.633Z,1013.67
2017-11-27T03:34:03.948Z,1013.68
2017-11-27T03:35:03.636Z,1013.74
2017-11-27T03:36:03.857Z,1013.71
2017-11-27T03:37:03.646Z,1013.72
2017-11-27T03:38:03.700Z,1013.68
2017-11-27T03:39:03.661Z,1013.66
2017-11-27T03:40:03.786Z,1013.68
2017-11-27T03:41:03.664Z,1013.68
2017-11-27T03:42:03.693Z,1013.69
2017-11-27T03:43:03.671Z,1013.66
2017-11-27T03:44:03.809Z,1013.63
2017-11-27T03:45:03.684Z,1013.66
2017-11-27T03:46:03.689Z,1013.62
2017-11-27T03:47:03.836Z,1013.57
2017-11-27T03:48:03.701Z,1013.59
2017-11-27T03:49:03.843Z,1013.55
2017-11-27T03:50:03.716Z,1013.55
2017-11-27T03:51:05.904Z,1013.49
2017-11-27T03:52:03.713Z,1013.47
2017-11-27T03:53:03.975Z,1013.47
2017-11-27T03:54:03.724Z,1013.51
2017-11-27T03:55:03.885Z,1013.47
2017-11-27T03:56:03.734Z,1013.45
2017-11-27T03:57:03.796Z,1013.43
2017-11-27T03:58:03.751Z,1013.45
2017-11-27T03:59:04.935Z,1013.47
2017-11-27T04:00:03.753Z,1013.38
2017-11-27T04:01:03.755Z,1013.38
2017-11-27T04:02:03.843Z,1013.36
2017-11-27T04:03:03.775Z,1013.35
2017-11-27T04:04:04.857Z,1013.37
2017-11-27T04:05:03.778Z,1013.34
2017-11-27T04:06:03.858Z,1013.28
2017-11-27T04:07:03.779Z,1013.25
2017-11-27T04:08:03.925Z,1013.31
2017-11-27T04:09:03.789Z,1013.25
2017-11-27T04:10:03.936Z,1013.22
2017-11-27T04:11:03.795Z,1013.25
2017-11-27T04:12:03.948Z,1013.27
2017-11-27T04:13:03.827Z,1013.26
2017-11-27T04:14:03.965Z,1013.27
2017-11-27T04:15:03.831Z,1013.23
2017-11-27T04:16:03.977Z,1013.27
2017-11-27T04:17:03.827Z,1013.20
2017-11-27T04:18:03.991Z,1013.17
2017-11-27T04:19:03.843Z,1013.18
2017-11-27T04:20:04.005Z,1013.11
2017-11-27T04:21:03.851Z,1013.13
2017-11-27T04:22:03.870Z,1013.08
2017-11-27T04:23:08.982Z,1013.07
2017-11-27T04:24:03.869Z,1013.06
2017-11-27T04:25:03.966Z,1013.07
2017-11-27T04:26:03.868Z,1013.03
2017-11-27T04:27:05.049Z,1013.01
2017-11-27T04:28:03.883Z,1012.99
2017-11-27T04:29:03.995Z,1013.05
2017-11-27T04:30:03.897Z,1013.04
2017-11-27T04:31:04.018Z,1013.07
2017-11-27T04:32:03.892Z,1013.11
2017-11-27T04:33:04.948Z,1013.02
2017-11-27T04:34:03.908Z,1013.04
2017-11-27T04:35:03.943Z,1012.97
2017-11-27T04:36:03.912Z,1012.96
2017-11-27T04:37:03.919Z,1012.95
2017-11-27T04:38:04.987Z,1012.89
2017-11-27T04:39:06.847Z,1012.94
2017-11-27T04:40:03.930Z,1012.93
2017-11-27T04:41:05.002Z,1012.94
2017-11-27T04:42:03.948Z,1012.93
2017-11-27T04:43:06.840Z,1012.90
2017-11-27T04:44:06.834Z,1012.91
2017-11-27T04:45:05.838Z,1012.92
2017-11-27T04:46:05.030Z,1012.89
2017-11-27T04:47:03.966Z,1012.80
2017-11-27T04:48:06.073Z,1012.84
2017-11-27T04:49:03.973Z,1012.88
2017-11-27T04:50:05.844Z,1012.88
2017-11-27T04:51:04.080Z,1012.85
2017-11-27T04:52:03.990Z,1012.82
2017-11-27T04:53:04.095Z,1012.86
2017-11-27T04:54:03.997Z,1012.82
2017-11-27T04:55:25.011Z,1012.83
2017-11-27T04:56:04.007Z,1012.84
2017-11-27T04:57:04.118Z,1012.79
2017-11-27T04:58:04.028Z,1012.72
2017-11-27T04:59:10.991Z,1012.72
2017-11-27T05:00:04.027Z,1012.71
2017-11-27T05:01:04.042Z,1012.73
2017-11-27T05:02:04.036Z,1012.74
2017-11-27T05:03:06.208Z,1012.77
2017-11-27T05:04:04.090Z,1012.75
2017-11-27T05:05:06.119Z,1012.72
2017-11-27T05:06:04.055Z,1012.73
2017-11-27T05:07:05.988Z,1012.74
2017-11-27T05:08:05.837Z,1012.67
2017-11-27T05:09:04.096Z,1012.72
2017-11-27T05:10:04.074Z,1012.64
2017-11-27T05:11:04.145Z,1012.60
2017-11-27T05:12:04.086Z,1012.54
2017-11-27T05:13:05.275Z,1012.58
2017-11-27T05:14:04.154Z,1012.55
2017-11-27T05:15:04.265Z,1012.53
2017-11-27T05:16:04.114Z,1012.52
2017-11-27T05:17:05.213Z,1012.54
2017-11-27T05:18:04.110Z,1012.53
2017-11-27T05:19:04.294Z,1012.52
2017-11-27T05:20:04.144Z,1012.52
2017-11-27T05:21:04.128Z,1012.47
2017-11-27T05:22:04.317Z,1012.44
2017-11-27T05:23:04.133Z,1012.41
2017-11-27T05:24:06.271Z,1012.45
2017-11-27T05:25:04.138Z,1012.40
2017-11-27T05:26:04.237Z,1012.41
2017-11-27T05:27:04.152Z,1012.44
2017-11-27T05:28:05.286Z,1012.36
2017-11-27T05:29:04.156Z,1012.35
2017-11-27T05:30:15.022Z,1012.37
2017-11-27T05:31:04.172Z,1012.30
2017-11-27T05:32:04.285Z,1012.31
2017-11-27T05:33:04.175Z,1012.33
2017-11-27T05:34:04.299Z,1012.33
2017-11-27T05:35:04.184Z,1012.32
2017-11-27T05:36:05.332Z,1012.26
2017-11-27T05:37:04.193Z,1012.33
2017-11-27T05:38:04.326Z,1012.26
2017-11-27T05:39:04.209Z,1012.26
2017-11-27T05:40:05.369Z,1012.25
2017-11-27T05:41:04.211Z,1012.14
2017-11-27T05:42:06.403Z,1012.14
2017-11-27T05:43:04.225Z,1012.07
2017-11-27T05:44:04.366Z,1012.06
2017-11-27T05:45:04.227Z,1012.05
2017-11-27T05:46:04.287Z,1012.05
2017-11-27T05:47:04.241Z,1012.00
2017-11-27T05:48:16.983Z,1011.99
2017-11-27T05:49:04.246Z,1011.95
2017-11-27T05:50:04.314Z,1011.94
2017-11-27T05:51:04.253Z,1011.93
2017-11-27T05:52:04.431Z,1011.86
2017-11-27T05:53:04.285Z,1011.93
2017-11-27T05:54:04.447Z,1011.94
2017-11-27T05:55:04.276Z,1011.89
2017-11-27T05:56:04.456Z,1011.87
2017-11-27T05:57:04.290Z,1011.88
2017-11-27T05:58:04.472Z,1011.87
2017-11-27T05:59:04.297Z,1011.86
2017-11-27T06:00:04.485Z,1011.90
2017-11-27T06:01:04.302Z,1011.81
2017-11-27T06:02:04.497Z,1011.89
2017-11-27T06:03:04.311Z,1011.83
2017-11-27T06:04:04.312Z,1011.75
2017-11-27T06:05:04.320Z,1011.81
2017-11-27T06:06:04.423Z,1011.78
2017-11-27T06:07:04.331Z,1011.74
2017-11-27T06:08:04.438Z,1011.68
2017-11-27T06:09:04.339Z,1011.75
2017-11-27T06:10:04.497Z,1011.68
2017-11-27T06:11:04.349Z,1011.62
2017-11-27T06:12:04.353Z,1011.60
2017-11-27T06:13:04.470Z,1011.58
2017-11-27T06:14:04.363Z,1011.57
2017-11-27T06:15:05.459Z,1011.56
2017-11-27T06:16:04.369Z,1011.50
2017-11-27T06:17:04.487Z,1011.50
2017-11-27T06:18:04.379Z,1011.49
2017-11-27T06:19:04.452Z,1011.47
2017-11-27T06:20:04.393Z,1011.47
2017-11-27T06:21:04.469Z,1011.42
2017-11-27T06:22:04.400Z,1011.45
2017-11-27T06:23:04.480Z,1011.42
2017-11-27T06:24:04.420Z,1011.32
2017-11-27T06:25:05.523Z,1011.30
2017-11-27T06:26:04.414Z,1011.27
2017-11-27T06:27:04.413Z,1011.28
2017-11-27T06:28:04.424Z,1011.22
2017-11-27T06:29:04.521Z,1011.21
2017-11-27T06:30:04.432Z,1011.25
2017-11-27T06:31:04.547Z,1011.20
2017-11-27T06:32:04.440Z,1011.21
2017-11-27T06:33:04.836Z,1011.20
2017-11-27T06:34:04.450Z,1011.16
2017-11-27T06:35:04.560Z,1011.16
2017-11-27T06:36:04.465Z,1011.07
2017-11-27T06:37:04.577Z,1011.07
2017-11-27T06:38:04.483Z,1011.04
2017-11-27T06:39:04.600Z,1011.05
2017-11-27T06:40:04.478Z,1010.98
2017-11-27T06:41:09.523Z,1011.02
2017-11-27T06:42:04.488Z,1010.98
2017-11-27T06:43:04.524Z,1011.01
2017-11-27T06:44:04.499Z,1010.94
2017-11-27T06:45:04.634Z,1010.94
2017-11-27T06:46:06.707Z,1010.93
2017-11-27T06:47:04.508Z,1010.96
2017-11-27T06:48:04.658Z,1010.89
2017-11-27T06:49:04.518Z,1010.94
2017-11-27T06:50:06.712Z,1010.83
2017-11-27T06:51:04.527Z,1010.90
2017-11-27T06:52:11.548Z,1010.83
2017-11-27T06:53:04.544Z,1010.80
2017-11-27T06:54:04.708Z,1010.72
2017-11-27T06:55:04.554Z,1010.74
2017-11-27T06:56:09.425Z,1010.78
2017-11-27T06:57:04.560Z,1010.82
2017-11-27T06:58:05.639Z,1010.75
2017-11-27T06:59:04.568Z,1010.63
2017-11-27T07:00:04.594Z,1010.64
2017-11-27T07:01:04.581Z,1010.62
2017-11-27T07:02:04.604Z,1010.68
2017-11-27T07:03:04.584Z,1010.65
2017-11-27T07:04:04.594Z,1010.59
2017-11-27T07:05:04.588Z,1010.60
2017-11-27T07:06:04.596Z,1010.57
2017-11-27T07:07:04.601Z,1010.48
2017-11-27T07:08:04.613Z,1010.51
2017-11-27T07:09:04.611Z,1010.47
2017-11-27T07:10:04.614Z,1010.48
2017-11-27T07:11:05.689Z,1010.45
2017-11-27T07:12:04.650Z,1010.40
2017-11-27T07:13:04.682Z,1010.38
2017-11-27T07:14:04.634Z,1010.41
2017-11-27T07:15:04.691Z,1010.37
2017-11-27T07:16:04.642Z,1010.33
2017-11-27T07:17:04.707Z,1010.29
2017-11-27T07:18:04.648Z,1010.29
2017-11-27T07:19:04.652Z,1010.29
2017-11-27T07:20:04.660Z,1010.30
2017-11-27T07:21:04.702Z,1010.33
2017-11-27T07:22:04.666Z,1010.28
2017-11-27T07:23:04.668Z,1010.27
2017-11-27T07:24:04.782Z,1010.24
2017-11-27T07:25:04.676Z,1010.23
2017-11-27T07:26:04.795Z,1010.22
2017-11-27T07:27:04.698Z,1010.18
2017-11-27T07:28:04.806Z,1010.23
2017-11-27T07:29:04.707Z,1010.20
2017-11-27T07:30:04.717Z,1010.15
2017-11-27T07:31:04.709Z,1010.19
2017-11-27T07:32:04.733Z,1010.13
2017-11-27T07:33:04.724Z,1010.15
2017-11-27T07:34:04.724Z,1010.19
2017-11-27T07:35:04.730Z,1010.19
2017-11-27T07:36:04.760Z,1010.18
2017-11-27T07:37:04.730Z,1010.12
2017-11-27T07:38:04.749Z,1010.11
2017-11-27T07:39:04.750Z,1010.05
2017-11-27T07:40:04.784Z,1010.06
2017-11-27T07:41:04.753Z,1009.95
2017-11-27T07:42:04.800Z,1010.02
2017-11-27T07:43:04.753Z,1010.03
2017-11-27T07:44:04.816Z,1009.99
2017-11-27T07:45:04.772Z,1009.94
2017-11-27T07:46:04.828Z,1010.03
2017-11-27T07:47:04.782Z,1009.91
2017-11-27T07:48:04.839Z,1009.88
2017-11-27T07:49:04.797Z,1009.81
2017-11-27T07:50:05.895Z,1009.84
2017-11-27T07:51:04.800Z,1009.82
2017-11-27T07:52:04.887Z,1009.76
2017-11-27T07:53:04.811Z,1009.71
2017-11-27T07:54:04.897Z,1009.79
2017-11-27T07:55:04.816Z,1009.82
2017-11-27T07:56:04.906Z,1009.73
2017-11-27T07:57:04.830Z,1009.74
2017-11-27T07:58:04.928Z,1009.65
2017-11-27T07:59:04.831Z,1009.67
2017-11-27T08:00:04.970Z,1009.61
2017-11-27T08:01:04.843Z,1009.60
2017-11-27T08:02:04.941Z,1009.65
2017-11-27T08:03:04.851Z,1009.60
2017-11-27T08:04:04.962Z,1009.58
2017-11-27T08:05:04.870Z,1009.56
2017-11-27T08:06:04.985Z,1009.49
2017-11-27T08:07:04.861Z,1009.47
2017-11-27T08:08:04.890Z,1009.46
2017-11-27T08:09:04.877Z,1009.41
2017-11-27T08:10:04.901Z,1009.40
2017-11-27T08:11:04.887Z,1009.33
2017-11-27T08:12:04.927Z,1009.35
2017-11-27T08:13:04.888Z,1009.38
2017-11-27T08:14:04.940Z,1009.33
2017-11-27T08:15:04.903Z,1009.35
2017-11-27T08:16:05.968Z,1009.30
2017-11-27T08:17:04.913Z,1009.26
2017-11-27T08:18:10.972Z,1009.24
2017-11-27T08:19:04.925Z,1009.32
2017-11-27T08:20:04.949Z,1009.19
2017-11-27T08:21:04.933Z,1009.21
2017-11-27T08:22:09.970Z,1009.17
2017-11-27T08:23:04.945Z,1009.23
2017-11-27T08:24:10.943Z,1009.17
2017-11-27T08:25:04.953Z,1009.15
2017-11-27T08:26:16.968Z,1009.16
2017-11-27T08:27:04.964Z,1009.11
2017-11-27T08:28:07.059Z,1009.11
2017-11-27T08:29:04.971Z,1009.04
2017-11-27T08:30:15.972Z,1009.03
2017-11-27T08:31:04.986Z,1008.98
2017-11-27T08:32:06.863Z,1008.99
2017-11-27T08:33:05.071Z,1009.01
2017-11-27T08:34:04.991Z,1008.95
2017-11-27T08:35:05.084Z,1008.97
2017-11-27T08:36:04.996Z,1008.90
2017-11-27T08:37:05.098Z,1008.88
2017-11-27T08:38:05.007Z,1008.90
2017-11-27T08:39:05.055Z,1008.91
2017-11-27T08:40:05.017Z,1008.89
2017-11-27T08:41:05.069Z,1008.93
2017-11-27T08:42:05.025Z,1008.80
2017-11-27T08:43:07.099Z,1008.81
2017-11-27T08:44:05.037Z,1008.84
2017-11-27T08:45:07.045Z,1008.85
2017-11-27T08:46:05.050Z,1008.85
2017-11-27T08:47:10.046Z,1008.86
2017-11-27T08:48:05.059Z,1008.78
2017-11-27T08:49:06.116Z,1008.69
2017-11-27T08:50:05.064Z,1008.74
2017-11-27T08:51:05.116Z,1008.70
2017-11-27T08:52:05.076Z,1008.71
2017-11-27T08:53:05.115Z,1008.71
2017-11-27T08:54:05.081Z,1008.61
2017-11-27T08:55:05.090Z,1008.59
2017-11-27T08:56:05.084Z,1008.58
2017-11-27T08:57:05.150Z,1008.49
2017-11-27T08:58:05.096Z,1008.47
2017-11-27T08:59:07.204Z,1008.48
2017-11-27T09:00:05.108Z,1008.46
2017-11-27T09:01:06.118Z,1008.45
2017-11-27T09:02:05.120Z,1008.44
2017-11-27T09:03:05.190Z,1008.36
2017-11-27T09:04:05.126Z,1008.37
2017-11-27T09:05:05.219Z,1008.36
2017-11-27T09:06:05.133Z,1008.34
2017-11-27T09:07:05.220Z,1008.42
2017-11-27T09:08:05.222Z,1008.38
2017-11-27T09:09:05.145Z,1008.28
2017-11-27T09:10:05.237Z,1008.32
2017-11-27T09:11:05.162Z,1008.25
2017-11-27T09:12:05.250Z,1008.32
2017-11-27T09:13:05.165Z,1008.31
2017-11-27T09:14:05.294Z,1008.29
2017-11-27T09:15:05.173Z,1008.36
2017-11-27T09:16:05.279Z,1008.21
2017-11-27T09:17:05.179Z,1008.17
2017-11-27T09:18:05.291Z,1008.17
2017-11-27T09:19:05.193Z,1008.20
2017-11-27T09:20:05.306Z,1008.16
2017-11-27T09:21:05.201Z,1008.16
2017-11-27T09:22:05.284Z,1008.11
2017-11-27T09:23:05.223Z,1008.07
2017-11-27T09:24:05.233Z,1008.08
2017-11-27T09:25:06.889Z,1008.05
2017-11-27T09:26:05.243Z,1008.07
2017-11-27T09:27:12.875Z,1007.98
2017-11-27T09:28:06.875Z,1007.97
2017-11-27T09:29:05.256Z,1007.94
2017-11-27T09:30:05.240Z,1007.88
2017-11-27T09:31:05.272Z,1007.91
2017-11-27T09:32:05.249Z,1007.87
2017-11-27T09:33:05.296Z,1007.87
2017-11-27T09:34:05.258Z,1007.90
2017-11-27T09:35:05.298Z,1007.90
2017-11-27T09:36:05.269Z,1007.81
2017-11-27T09:37:06.338Z,1007.82
2017-11-27T09:38:05.276Z,1007.91
2017-11-27T09:39:05.337Z,1007.79
2017-11-27T09:40:05.282Z,1007.72
2017-11-27T09:41:06.403Z,1007.73
2017-11-27T09:42:05.299Z,1007.72
2017-11-27T09:43:07.338Z,1007.75
2017-11-27T09:44:05.307Z,1007.68
2017-11-27T09:45:09.886Z,1007.77
2017-11-27T09:46:05.315Z,1007.63
2017-11-27T09:47:06.338Z,1007.66
2017-11-27T09:48:05.340Z,1007.70
2017-11-27T09:49:06.375Z,1007.65
2017-11-27T09:50:05.328Z,1007.57
2017-11-27T09:51:11.026Z,1007.57
2017-11-27T09:52:05.363Z,1007.55
2017-11-27T09:53:05.348Z,1007.46
2017-11-27T09:54:09.985Z,1007.52
2017-11-27T09:55:05.356Z,1007.58
2017-11-27T09:56:05.350Z,1007.50
2017-11-27T09:57:05.358Z,1007.47
2017-11-27T09:58:06.889Z,1007.47
2017-11-27T09:59:05.367Z,1007.47
2017-11-27T10:00:06.880Z,1007.37
2017-11-27T10:01:06.425Z,1007.38
2017-11-27T10:02:05.388Z,1007.41
2017-11-27T10:03:06.445Z,1007.33
2017-11-27T10:04:05.390Z,1007.40
2017-11-27T10:05:05.435Z,1007.34
2017-11-27T10:06:05.398Z,1007.33
2017-11-27T10:07:07.498Z,1007.29
2017-11-27T10:08:05.409Z,1007.26
2017-11-27T10:09:05.460Z,1007.14
2017-11-27T10:10:05.419Z,1007.17
2017-11-27T10:11:05.477Z,1007.16
2017-11-27T10:12:05.428Z,1007.14
2017-11-27T10:13:05.438Z,1007.21
2017-11-27T10:14:05.454Z,1007.01
2017-11-27T10:15:05.502Z,1007.09
2017-11-27T10:16:05.438Z,1007.08
2017-11-27T10:17:05.517Z,1007.09
2017-11-27T10:18:05.454Z,1007.02
2017-11-27T10:19:05.556Z,1006.99
2017-11-27T10:20:05.462Z,1007.03
2017-11-27T10:21:05.548Z,1006.93
2017-11-27T10:22:05.468Z,1006.89
2017-11-27T10:23:05.560Z,1006.99
2017-11-27T10:24:05.482Z,1006.80
2017-11-27T10:25:05.658Z,1006.80
2017-11-27T10:26:05.500Z,1006.68
2017-11-27T10:27:07.533Z,1006.75
2017-11-27T10:28:05.509Z,1006.70
2017-11-27T10:29:06.516Z,1006.73
2017-11-27T10:30:05.513Z,1006.61
2017-11-27T10:31:06.532Z,1006.66
2017-11-27T10:32:05.516Z,1006.47
2017-11-27T10:33:07.568Z,1006.52
2017-11-27T10:34:05.528Z,1006.57
2017-11-27T10:35:07.577Z,1006.53
2017-11-27T10:36:05.537Z,1006.50
2017-11-27T10:37:05.653Z,1006.38
2017-11-27T10:38:05.550Z,1006.32
2017-11-27T10:39:05.561Z,1006.30
2017-11-27T10:40:05.552Z,1006.26
2017-11-27T10:41:05.576Z,1006.19
2017-11-27T10:42:05.564Z,1006.36
2017-11-27T10:43:05.588Z,1006.15
2017-11-27T10:44:05.577Z,1006.14
2017-11-27T10:45:05.580Z,1006.08
2017-11-27T10:46:05.579Z,1006.01
2017-11-27T10:47:06.639Z,1006.01
2017-11-27T10:48:05.595Z,1005.92
2017-11-27T10:49:05.634Z,1005.79
2017-11-27T10:50:05.598Z,1005.83
2017-11-27T10:51:05.642Z,1005.75
2017-11-27T10:52:05.615Z,1005.76
2017-11-27T10:53:05.658Z,1005.70
2017-11-27T10:54:05.625Z,1005.70
2017-11-27T10:55:05.676Z,1005.66
2017-11-27T10:56:05.627Z,1005.44
2017-11-27T10:57:05.687Z,1005.44
2017-11-27T10:58:05.636Z,1005.46
2017-11-27T10:59:05.699Z,1005.42
2017-11-27T11:00:05.642Z,1005.33
2017-11-27T11:01:06.737Z,1005.30
2017-11-27T11:02:05.665Z,1005.28
2017-11-27T11:03:05.731Z,1005.32
2017-11-27T11:04:05.663Z,1005.28
2017-11-27T11:05:05.772Z,1005.22
2017-11-27T11:06:05.670Z,1005.32
2017-11-27T11:07:05.756Z,1005.19
2017-11-27T11:08:05.682Z,1005.19
2017-11-27T11:09:06.790Z,1005.15
2017-11-27T11:10:05.693Z,1005.24
2017-11-27T11:11:06.803Z,1005.12
2017-11-27T11:12:05.727Z,1005.17
2017-11-27T11:13:05.793Z,1005.24
2017-11-27T11:14:05.709Z,1005.23
2017-11-27T11:15:05.805Z,1005.14
2017-11-27T11:16:05.720Z,1005.09
2017-11-27T11:17:05.820Z,1005.10
2017-11-27T11:18:05.726Z,1005.09
2017-11-27T11:19:05.835Z,1005.03
2017-11-27T11:20:05.740Z,1004.96
2017-11-27T11:21:05.847Z,1004.97
2017-11-27T11:22:05.760Z,1005.03
2017-11-27T11:23:05.750Z,1004.90
2017-11-27T11:24:05.769Z,1004.92
2017-11-27T11:25:05.755Z,1005.01
2017-11-27T11:26:05.801Z,1004.94
2017-11-27T11:27:05.764Z,1004.95
2017-11-27T11:28:05.792Z,1004.91
2017-11-27T11:29:05.776Z,1004.88
2017-11-27T11:30:05.773Z,1004.75
2017-11-27T11:31:05.815Z,1004.88
2017-11-27T11:32:05.797Z,1004.76
2017-11-27T11:33:05.793Z,1004.77
2017-11-27T11:34:05.800Z,1004.71
2017-11-27T11:35:06.848Z,1004.82
2017-11-27T11:36:05.802Z,1004.77
2017-11-27T11:37:05.946Z,1004.73
2017-11-27T11:38:05.816Z,1004.76
2017-11-27T11:39:05.857Z,1004.68
2017-11-27T11:40:05.833Z,1004.62
2017-11-27T11:41:05.872Z,1004.64
2017-11-27T11:42:05.836Z,1004.44
2017-11-27T11:43:05.884Z,1004.56
2017-11-27T11:44:05.843Z,1004.60
2017-11-27T11:45:05.896Z,1004.51
2017-11-27T11:46:05.859Z,1004.49
2017-11-27T11:47:05.903Z,1004.62
2017-11-27T11:48:05.868Z,1004.51
2017-11-27T11:49:05.962Z,1004.50
2017-11-27T11:50:05.873Z,1004.46
2017-11-27T11:51:05.975Z,1004.40
2017-11-27T11:52:05.929Z,1004.38
2017-11-27T11:53:05.987Z,1004.40
2017-11-27T11:54:05.889Z,1004.44
2017-11-27T11:55:05.999Z,1004.44
2017-11-27T11:56:05.913Z,1004.42
2017-11-27T11:57:05.916Z,1004.40
2017-11-27T11:58:07.960Z,1004.36
2017-11-27T11:59:05.919Z,1004.51
2017-11-27T12:00:06.949Z,1004.38
2017-11-27T12:01:05.939Z,1004.31
2017-11-27T12:02:06.962Z,1004.19
2017-11-27T12:03:05.933Z,1004.27
2017-11-27T12:04:13.019Z,1004.23
2017-11-27T12:05:05.945Z,1004.15